Time;durP1;ratioP1;P1;durP2;ratioP2;P2;SDS_P1;SDS_P2;PMS_P1;PMS_P2;Temp;Humidity;BMP_temperature;BMP_pressure;BME280_temperature;BME280_humidity;BME280_pressure;Samples;Min_cycle;Max_cycle;Signal;HPM_P1;HPM_P2
2021/08/16 00:02:18;;;;;;;7.40;3.05;;;;;;;;;;5081972;28;20040;-84
2021/08/16 00:04:44;;;;;;;5.88;2.95;;;;;;;;;;5068333;28;20036;-85
2021/08/16 00:07:09;;;;;;;5.50;3.30;;;;;;;;;;5052563;28;20454;-83
2021/08/16 00:09:35;;;;;;;6.25;3.78;;;;;;;;;;5053022;28;20072;-85
2021/08/16 00:12:00;;;;;;;6.32;3.13;;;;;;;;;;5034900;28;20063;-84
2021/08/16 00:14:26;;;;;;;7.75;3.50;;;;;;;;;;5034548;28;20499;-84
2021/08/16 00:16:51;;;;;;;7.05;3.22;;;;;;;;;;5052910;28;20036;-84
2021/08/16 00:19:17;;;;;;;5.65;3.70;;;;;;;;;;5054875;28;20091;-84
2021/08/16 00:21:42;;;;;;;6.65;3.40;;;;;;;;;;5054550;28;20151;-83
2021/08/16 00:24:08;;;;;;;8.88;3.25;;;;;;;;;;5073410;28;20082;-82
2021/08/16 00:26:33;;;;;;;5.18;2.97;;;;;;;;;;5070754;28;20032;-83
2021/08/16 00:28:59;;;;;;;6.70;2.95;;;;;;;;;;5034800;28;20033;-83
2021/08/16 00:31:28;;;;;;;8.15;3.53;;;;;;;;;;5034331;28;20040;-84
2021/08/16 00:33:54;;;;;;;7.80;3.75;;;;;;;;;;5055899;28;20025;-84
2021/08/16 00:36:19;;;;;;;9.55;3.15;;;;;;;;;;5035154;28;20032;-85
2021/08/16 00:38:45;;;;;;;6.47;3.25;;;;;;;;;;5052665;28;20476;-85
2021/08/16 00:41:12;;;;;;;6.78;3.40;;;;;;;;;;5052799;28;20524;-86
2021/08/16 00:43:38;;;;;;;7.70;3.78;;;;;;;;;;5052448;28;20029;-85
2021/08/16 00:46:05;;;;;;;5.25;3.13;;;;;;;;;;5052821;28;20029;-85
2021/08/16 00:48:30;;;;;;;5.07;3.22;;;;;;;;;;5067163;28;20464;-85
2021/08/16 00:50:56;;;;;;;10.40;3.30;;;;;;;;;;5056354;28;20044;-84
2021/08/16 00:53:21;;;;;;;9.40;3.40;;;;;;;;;;5053784;28;20071;-84
2021/08/16 00:55:47;;;;;;;6.25;3.28;;;;;;;;;;5056296;28;20036;-83
2021/08/16 00:58:12;;;;;;;4.78;2.88;;;;;;;;;;5064409;28;20040;-85
2021/08/16 01:00:38;;;;;;;5.65;3.20;;;;;;;;;;5058178;28;20090;-86
2021/08/16 01:03:04;;;;;;;7.38;3.15;;;;;;;;;;5058259;28;20360;-85
2021/08/16 01:05:31;;;;;;;10.20;3.05;;;;;;;;;;5076302;28;20059;-86
2021/08/16 01:07:58;;;;;;;7.15;3.28;;;;;;;;;;5075607;28;20032;-83
2021/08/16 01:10:23;;;;;;;5.20;3.03;;;;;;;;;;5071286;28;20029;-83
2021/08/16 01:12:49;;;;;;;8.23;3.65;;;;;;;;;;5065267;28;20036;-83
2021/08/16 01:15:15;;;;;;;7.07;3.13;;;;;;;;;;5096111;28;20040;-86
2021/08/16 01:17:42;;;;;;;9.52;3.08;;;;;;;;;;5096241;28;20104;-85
2021/08/16 01:20:08;;;;;;;5.00;2.92;;;;;;;;;;5076003;28;20025;-84
2021/08/16 01:22:34;;;;;;;5.60;2.90;;;;;;;;;;5040118;28;20055;-85
2021/08/16 01:25:05;;;;;;;5.97;2.90;;;;;;;;;;5038009;28;20036;-84
2021/08/16 01:27:31;;;;;;;6.75;3.13;;;;;;;;;;5068569;28;20112;-83
2021/08/16 01:30:01;;;;;;;7.10;3.10;;;;;;;;;;5075365;28;20052;-84
2021/08/16 01:32:26;;;;;;;7.18;3.15;;;;;;;;;;5057370;28;20224;-84
2021/08/16 01:34:52;;;;;;;6.22;3.45;;;;;;;;;;5075509;28;20056;-83
2021/08/16 01:37:18;;;;;;;4.95;3.30;;;;;;;;;;5069647;28;20090;-84
2021/08/16 01:39:43;;;;;;;7.85;3.13;;;;;;;;;;5037683;28;20035;-83
2021/08/16 01:42:09;;;;;;;9.18;3.30;;;;;;;;;;5047518;28;20498;-84
2021/08/16 01:44:34;;;;;;;6.20;2.95;;;;;;;;;;5063709;28;20045;-84
2021/08/16 01:47:00;;;;;;;12.77;3.67;;;;;;;;;;5041047;28;20025;-84
2021/08/16 01:49:25;;;;;;;8.88;3.63;;;;;;;;;;5074057;28;20070;-84
2021/08/16 01:51:51;;;;;;;9.30;3.67;;;;;;;;;;5075385;28;20027;-84
2021/08/16 01:54:25;;;;;;;8.55;3.65;;;;;;;;;;5074911;28;20048;-84
2021/08/16 01:56:52;;;;;;;4.82;2.90;;;;;;;;;;5059647;28;20024;-84
2021/08/16 01:59:17;;;;;;;8.38;3.40;;;;;;;;;;5076151;28;20040;-85
2021/08/16 02:01:43;;;;;;;8.82;3.15;;;;;;;;;;5076422;28;20052;-83
2021/08/16 02:04:08;;;;;;;7.22;3.40;;;;;;;;;;5058665;28;20064;-84
2021/08/16 02:06:34;;;;;;;8.60;3.50;;;;;;;;;;5055803;28;20385;-84
2021/08/16 02:08:59;;;;;;;6.20;3.05;;;;;;;;;;5055391;28;20071;-84
2021/08/16 02:11:25;;;;;;;9.05;3.70;;;;;;;;;;5036877;28;20418;-84
2021/08/16 02:13:50;;;;;;;9.25;3.97;;;;;;;;;;5071476;28;20060;-85
2021/08/16 02:16:16;;;;;;;6.60;3.17;;;;;;;;;;5074277;28;20032;-82
2021/08/16 02:18:42;;;;;;;8.32;3.42;;;;;;;;;;5061453;28;20144;-82
2021/08/16 02:21:08;;;;;;;9.05;3.88;;;;;;;;;;5035909;28;20502;-80
2021/08/16 02:23:33;;;;;;;7.88;4.10;;;;;;;;;;5054014;28;20509;-83
2021/08/16 02:25:59;;;;;;;12.32;3.95;;;;;;;;;;5054016;28;20158;-82
2021/08/16 02:28:24;;;;;;;10.32;4.15;;;;;;;;;;5062193;28;20090;-81
2021/08/16 02:30:50;;;;;;;10.25;3.80;;;;;;;;;;5059264;28;20025;-83
2021/08/16 02:33:16;;;;;;;11.40;3.70;;;;;;;;;;5069052;28;20111;-83
2021/08/16 02:35:42;;;;;;;8.68;3.33;;;;;;;;;;5055803;28;20024;-84
2021/08/16 02:38:07;;;;;;;9.80;4.03;;;;;;;;;;5066719;28;20063;-84
2021/08/16 02:40:33;;;;;;;8.88;3.83;;;;;;;;;;5053619;28;20027;-84
2021/08/16 02:42:59;;;;;;;10.05;4.13;;;;;;;;;;5035659;28;20369;-84
2021/08/16 02:45:25;;;;;;;6.47;3.70;;;;;;;;;;5036592;28;20033;-85
2021/08/16 02:47:51;;;;;;;9.98;3.90;;;;;;;;;;5071512;28;20116;-85
2021/08/16 02:50:17;;;;;;;13.20;4.05;;;;;;;;;;5072555;28;20028;-86
2021/08/16 02:52:42;;;;;;;8.43;4.22;;;;;;;;;;5054543;28;20044;-86
2021/08/16 02:55:08;;;;;;;8.75;4.05;;;;;;;;;;5054137;28;20039;-85
2021/08/16 02:57:34;;;;;;;12.57;4.57;;;;;;;;;;5067056;28;20471;-85
2021/08/16 02:59:59;;;;;;;8.27;3.95;;;;;;;;;;5077868;28;20044;-82
2021/08/16 03:02:25;;;;;;;8.05;4.57;;;;;;;;;;5075116;28;20040;-82
2021/08/16 03:04:50;;;;;;;7.78;4.30;;;;;;;;;;5061349;28;20543;-83
2021/08/16 03:07:16;;;;;;;8.13;4.13;;;;;;;;;;5065541;28;20024;-83
2021/08/16 03:09:41;;;;;;;11.02;4.22;;;;;;;;;;5042626;28;20132;-84
2021/08/16 03:12:07;;;;;;;8.90;4.53;;;;;;;;;;5073220;28;20063;-83
2021/08/16 03:14:33;;;;;;;11.90;4.40;;;;;;;;;;5072787;28;20044;-84
2021/08/16 03:16:59;;;;;;;12.68;4.50;;;;;;;;;;5070788;28;20028;-85
2021/08/16 03:19:25;;;;;;;5.35;3.47;;;;;;;;;;5067384;28;20467;-84
2021/08/16 03:21:50;;;;;;;7.57;4.55;;;;;;;;;;5072767;28;20029;-84
2021/08/16 03:24:16;;;;;;;9.27;3.92;;;;;;;;;;5057994;28;20158;-85
2021/08/16 03:26:41;;;;;;;8.02;4.45;;;;;;;;;;5053390;28;20025;-86
2021/08/16 03:29:07;;;;;;;9.45;4.18;;;;;;;;;;5053511;28;20036;-85
2021/08/16 03:31:32;;;;;;;8.65;4.30;;;;;;;;;;5062579;28;20037;-86
2021/08/16 03:33:59;;;;;;;8.00;4.15;;;;;;;;;;5072594;28;20078;-83
2021/08/16 03:36:25;;;;;;;11.48;3.75;;;;;;;;;;5054764;28;20059;-84
2021/08/16 03:38:50;;;;;;;10.68;3.78;;;;;;;;;;5070274;28;20479;-83
2021/08/16 03:41:16;;;;;;;12.23;3.90;;;;;;;;;;5072604;28;20115;-83
2021/08/16 03:43:41;;;;;;;7.80;3.35;;;;;;;;;;5073199;28;20036;-84
2021/08/16 03:46:07;;;;;;;6.88;3.42;;;;;;;;;;5071012;28;20487;-84
2021/08/16 03:48:32;;;;;;;10.23;3.88;;;;;;;;;;5071354;28;20032;-84
2021/08/16 03:50:58;;;;;;;7.47;3.88;;;;;;;;;;5057884;28;20021;-85
2021/08/16 03:53:25;;;;;;;5.53;3.50;;;;;;;;;;5070631;28;20032;-84
2021/08/16 03:55:50;;;;;;;11.88;4.10;;;;;;;;;;5041186;28;20499;-84
2021/08/16 03:58:16;;;;;;;13.05;3.70;;;;;;;;;;5073169;28;20154;-85
2021/08/16 04:00:42;;;;;;;11.30;4.32;;;;;;;;;;5072834;28;20166;-84
2021/08/16 04:03:07;;;;;;;8.95;3.90;;;;;;;;;;5058601;28;20534;-85
2021/08/16 04:05:33;;;;;;;15.40;3.97;;;;;;;;;;5034340;28;20033;-86
2021/08/16 04:07:58;;;;;;;12.60;3.88;;;;;;;;;;5052672;28;20047;-86
2021/08/16 04:10:25;;;;;;;8.27;3.78;;;;;;;;;;5053969;28;20090;-85
2021/08/16 04:12:51;;;;;;;11.55;3.50;;;;;;;;;;5052559;28;20080;-85
2021/08/16 04:15:17;;;;;;;9.48;3.97;;;;;;;;;;5052522;28;20507;-85
2021/08/16 04:17:43;;;;;;;16.70;4.10;;;;;;;;;;5052777;28;20481;-85
2021/08/16 04:20:09;;;;;;;8.23;3.78;;;;;;;;;;5054180;28;20111;-85
2021/08/16 04:22:35;;;;;;;8.60;4.00;;;;;;;;;;5062719;28;20039;-83
2021/08/16 04:25:01;;;;;;;9.02;4.13;;;;;;;;;;5072727;28;20116;-84
2021/08/16 04:27:26;;;;;;;13.38;4.32;;;;;;;;;;5070777;28;20036;-86
2021/08/16 04:29:52;;;;;;;9.88;3.50;;;;;;;;;;5075600;28;20029;-86
2021/08/16 04:32:18;;;;;;;11.48;3.90;;;;;;;;;;5075999;28;20081;-85
2021/08/16 04:34:43;;;;;;;9.88;3.70;;;;;;;;;;5076387;28;20028;-85
2021/08/16 04:37:10;;;;;;;11.98;4.20;;;;;;;;;;5074946;28;20029;-85
2021/08/16 04:39:35;;;;;;;9.02;3.83;;;;;;;;;;5076520;28;20076;-83
2021/08/16 04:42:01;;;;;;;14.27;4.03;;;;;;;;;;5057786;28;20025;-85
2021/08/16 04:44:26;;;;;;;8.85;3.65;;;;;;;;;;5076045;28;20032;-86
2021/08/16 04:46:52;;;;;;;10.02;3.97;;;;;;;;;;5072623;28;20025;-84
2021/08/16 04:49:18;;;;;;;7.75;4.07;;;;;;;;;;5037939;28;20032;-85
2021/08/16 04:51:44;;;;;;;10.82;4.00;;;;;;;;;;5038036;28;20032;-85
2021/08/16 04:54:10;;;;;;;9.27;3.83;;;;;;;;;;5057167;28;20438;-85
2021/08/16 04:56:35;;;;;;;17.27;4.40;;;;;;;;;;5055885;28;20119;-84
2021/08/16 04:59:01;;;;;;;11.55;3.95;;;;;;;;;;5055606;28;20403;-84
2021/08/16 05:01:50;;;;;;;11.32;3.70;;;;;;;;;;5056935;28;20036;-86
2021/08/16 05:04:15;;;;;;;24.85;6.30;;;;;;;;;;5051075;28;20043;-85
2021/08/16 05:06:42;;;;;;;16.08;4.40;;;;;;;;;;5061058;28;20477;-84
2021/08/16 05:09:08;;;;;;;9.23;4.00;;;;;;;;;;5056132;28;20047;-84
2021/08/16 05:11:34;;;;;;;7.43;4.03;;;;;;;;;;5055793;28;20479;-84
2021/08/16 05:13:59;;;;;;;8.52;3.88;;;;;;;;;;5065452;28;20078;-85
2021/08/16 05:16:25;;;;;;;12.07;4.38;;;;;;;;;;5066280;28;20044;-84
2021/08/16 05:18:51;;;;;;;13.25;4.07;;;;;;;;;;5076435;28;20044;-84
2021/08/16 05:21:17;;;;;;;7.80;3.42;;;;;;;;;;5074027;28;20032;-84
2021/08/16 05:23:43;;;;;;;12.98;4.50;;;;;;;;;;5056980;28;20032;-83
2021/08/16 05:26:08;;;;;;;16.88;4.90;;;;;;;;;;5075062;28;20024;-84
2021/08/16 05:28:34;;;;;;;11.63;4.25;;;;;;;;;;5072521;28;20155;-86
2021/08/16 05:30:59;;;;;;;18.85;4.97;;;;;;;;;;5037123;28;20059;-85
2021/08/16 05:33:25;;;;;;;12.25;5.18;;;;;;;;;;5059916;28;20135;-85
2021/08/16 05:35:50;;;;;;;14.48;4.78;;;;;;;;;;5075588;28;20443;-84
2021/08/16 05:38:16;;;;;;;7.93;3.60;;;;;;;;;;5086966;28;20041;-84
2021/08/16 05:40:41;;;;;;;20.63;4.43;;;;;;;;;;5090713;28;20028;-84
2021/08/16 05:43:07;;;;;;;9.82;4.63;;;;;;;;;;5079735;28;20036;-86
2021/08/16 05:45:32;;;;;;;15.95;4.30;;;;;;;;;;5064322;28;20501;-84
2021/08/16 05:48:00;;;;;;;16.73;5.57;;;;;;;;;;5074407;28;20030;-85
2021/08/16 05:50:25;;;;;;;9.32;3.78;;;;;;;;;;5075096;28;20064;-83
2021/08/16 05:52:52;;;;;;;16.08;4.57;;;;;;;;;;5074863;28;20024;-85
2021/08/16 05:55:17;;;;;;;14.30;3.65;;;;;;;;;;5074669;28;20036;-85
2021/08/16 05:57:43;;;;;;;13.15;3.72;;;;;;;;;;5069714;28;20037;-85
2021/08/16 06:00:09;;;;;;;17.77;4.68;;;;;;;;;;5055013;28;20119;-85
2021/08/16 06:02:35;;;;;;;28.90;4.70;;;;;;;;;;5065407;28;20139;-86
2021/08/16 06:05:00;;;;;;;30.92;5.15;;;;;;;;;;5053905;28;20411;-86
2021/08/16 06:07:26;;;;;;;6.88;3.60;;;;;;;;;;5074608;28;20036;-86
2021/08/16 06:09:52;;;;;;;11.95;3.67;;;;;;;;;;5057090;28;20398;-86
2021/08/16 06:12:17;;;;;;;16.15;4.40;;;;;;;;;;5074615;28;20025;-86
2021/08/16 06:14:43;;;;;;;9.13;4.10;;;;;;;;;;5073949;28;20489;-85
2021/08/16 06:17:09;;;;;;;8.57;3.53;;;;;;;;;;5054970;28;20029;-86
2021/08/16 06:19:34;;;;;;;9.30;3.97;;;;;;;;;;5085662;28;20105;-87
2021/08/16 06:22:00;;;;;;;10.80;4.15;;;;;;;;;;5089989;28;20021;-85
2021/08/16 06:24:26;;;;;;;8.15;3.47;;;;;;;;;;5082580;28;20111;-86
2021/08/16 06:26:51;;;;;;;10.38;3.40;;;;;;;;;;5056020;28;20042;-85
2021/08/16 06:29:17;;;;;;;14.50;4.47;;;;;;;;;;5070017;28;20025;-85
2021/08/16 06:31:42;;;;;;;5.97;3.30;;;;;;;;;;5054697;28;20040;-84
2021/08/16 06:34:10;;;;;;;14.48;4.28;;;;;;;;;;5063943;28;20047;-84
2021/08/16 06:36:39;;;;;;;9.60;4.18;;;;;;;;;;5055720;28;20036;-83
2021/08/16 06:39:21;;;;;;;6.88;3.17;;;;;;;;;;5073828;28;20037;-84
2021/08/16 06:41:50;;;;;;;11.90;3.70;;;;;;;;;;5070264;28;20059;-85
2021/08/16 06:44:17;;;;;;;8.00;4.03;;;;;;;;;;5073521;28;20098;-85
2021/08/16 06:46:43;;;;;;;9.60;3.17;;;;;;;;;;5068432;28;20511;-85
2021/08/16 06:49:08;;;;;;;6.15;3.50;;;;;;;;;;5063979;28;20068;-84
2021/08/16 06:51:34;;;;;;;7.75;3.17;;;;;;;;;;5069920;28;20119;-84
2021/08/16 06:54:00;;;;;;;13.05;3.75;;;;;;;;;;5073908;28;20043;-85
2021/08/16 06:56:26;;;;;;;5.03;3.53;;;;;;;;;;5055373;28;20086;-85
2021/08/16 06:58:51;;;;;;;20.70;4.70;;;;;;;;;;5085391;28;20067;-86
2021/08/16 07:01:25;;;;;;;40.83;7.13;;;;;;;;;;5060455;28;20399;-86
2021/08/16 07:03:51;;;;;;;7.47;3.67;;;;;;;;;;5053320;28;20040;-84
2021/08/16 07:06:17;;;;;;;8.23;3.20;;;;;;;;;;5057625;28;20108;-85
2021/08/16 07:08:42;;;;;;;5.32;3.58;;;;;;;;;;5071953;28;20052;-85
2021/08/16 07:11:09;;;;;;;23.67;4.53;;;;;;;;;;5072574;28;20028;-85
2021/08/16 07:13:34;;;;;;;5.72;3.58;;;;;;;;;;5072476;28;20044;-86
2021/08/16 07:16:00;;;;;;;13.02;4.40;;;;;;;;;;5055473;28;20032;-84
2021/08/16 07:18:26;;;;;;;9.32;3.50;;;;;;;;;;5072974;28;20028;-83
2021/08/16 07:20:52;;;;;;;8.27;3.80;;;;;;;;;;5073164;28;20028;-84
2021/08/16 07:23:17;;;;;;;7.53;3.65;;;;;;;;;;5058809;28;20107;-86
2021/08/16 07:25:43;;;;;;;5.18;3.28;;;;;;;;;;5081834;28;20062;-84
2021/08/16 07:28:09;;;;;;;5.60;3.22;;;;;;;;;;5078238;28;20032;-86
2021/08/16 07:30:35;;;;;;;9.85;2.92;;;;;;;;;;5070984;28;20028;-83
2021/08/16 07:33:00;;;;;;;11.82;3.33;;;;;;;;;;5068903;28;20124;-81
2021/08/16 07:35:26;;;;;;;7.50;3.65;;;;;;;;;;5072501;28;20367;-81
2021/08/16 07:37:52;;;;;;;5.15;3.67;;;;;;;;;;5072170;28;20426;-81
2021/08/16 07:40:20;;;;;;;5.10;3.72;;;;;;;;;;5072603;28;20035;-80
2021/08/16 07:42:47;;;;;;;11.60;3.65;;;;;;;;;;5071549;28;20051;-80
2021/08/16 07:45:13;;;;;;;7.47;3.55;;;;;;;;;;5071689;28;20413;-80
2021/08/16 07:47:39;;;;;;;10.63;6.45;;;;;;;;;;5071215;28;20046;-80
2021/08/16 07:50:09;;;;;;;7.28;3.55;;;;;;;;;;5054176;28;20525;-79
2021/08/16 07:52:35;;;;;;;5.05;2.95;;;;;;;;;;5073131;28;20042;-82
2021/08/16 07:55:01;;;;;;;5.88;3.30;;;;;;;;;;5058842;28;20119;-82
2021/08/16 07:57:26;;;;;;;4.28;3.20;;;;;;;;;;5055203;28;20120;-81
2021/08/16 07:59:52;;;;;;;8.00;3.78;;;;;;;;;;5052800;28;20064;-83
2021/08/16 08:02:17;;;;;;;8.88;3.15;;;;;;;;;;5052054;28;20025;-82
2021/08/16 08:04:43;;;;;;;10.23;3.30;;;;;;;;;;5058464;28;20048;-81
2021/08/16 08:07:08;;;;;;;7.40;3.13;;;;;;;;;;5063585;28;20059;-81
2021/08/16 08:09:34;;;;;;;10.63;3.20;;;;;;;;;;5072144;28;20062;-81
2021/08/16 08:12:00;;;;;;;8.65;3.08;;;;;;;;;;5054020;28;20117;-81
2021/08/16 08:14:25;;;;;;;6.22;4.28;;;;;;;;;;5079317;28;20130;-82
2021/08/16 08:16:51;;;;;;;6.03;3.67;;;;;;;;;;5092173;28;20497;-81
2021/08/16 08:19:17;;;;;;;4.15;2.90;;;;;;;;;;5092273;28;20071;-79
2021/08/16 08:21:42;;;;;;;4.40;3.45;;;;;;;;;;5093305;28;20377;-81
2021/08/16 08:24:08;;;;;;;4.72;3.40;;;;;;;;;;5072578;28;20029;-80
2021/08/16 08:26:33;;;;;;;7.88;3.60;;;;;;;;;;5033592;28;20033;-82
2021/08/16 08:28:59;;;;;;;4.97;3.28;;;;;;;;;;5061317;28;20020;-81
2021/08/16 08:31:26;;;;;;;9.52;3.92;;;;;;;;;;5078046;28;20036;-82
2021/08/16 08:33:52;;;;;;;9.90;3.33;;;;;;;;;;5071907;28;20048;-82
2021/08/16 08:36:17;;;;;;;5.97;3.63;;;;;;;;;;5062229;28;20083;-84
2021/08/16 08:38:43;;;;;;;7.40;3.17;;;;;;;;;;5073504;28;20037;-82
2021/08/16 08:41:11;;;;;;;16.52;3.97;;;;;;;;;;5093717;28;20431;-87
2021/08/16 08:43:37;;;;;;;7.32;3.20;;;;;;;;;;5073167;28;20058;-87
2021/08/16 08:46:03;;;;;;;8.48;3.47;;;;;;;;;;5036035;28;20029;-86
2021/08/16 08:48:28;;;;;;;9.27;3.60;;;;;;;;;;5052515;28;20102;-86
2021/08/16 08:50:54;;;;;;;9.70;4.10;;;;;;;;;;5068041;28;20036;-91
2021/08/16 08:53:19;;;;;;;8.13;3.85;;;;;;;;;;5063333;28;20035;-93
2021/08/16 08:55:45;;;;;;;12.20;4.43;;;;;;;;;;5079528;28;20483;-89
2021/08/16 08:58:13;;;;;;;9.02;3.92;;;;;;;;;;5059873;28;20483;-89
2021/08/16 09:00:39;;;;;;;11.65;3.92;;;;;;;;;;5039985;28;20119;-85
2021/08/16 09:03:05;;;;;;;6.60;3.67;;;;;;;;;;5059817;28;20064;-84
2021/08/16 09:05:31;;;;;;;7.38;4.35;;;;;;;;;;5065595;28;20029;-83
2021/08/16 09:08:00;;;;;;;8.75;4.50;;;;;;;;;;5083274;28;20081;-82
2021/08/16 09:10:27;;;;;;;9.23;4.13;;;;;;;;;;5052551;28;20025;-86
2021/08/16 09:12:57;;;;;;;8.23;4.00;;;;;;;;;;5066634;28;20432;-87
2021/08/16 09:15:41;;;;;;;18.17;4.97;;;;;;;;;;5066944;28;20082;-85
2021/08/16 09:18:07;;;;;;;7.07;3.67;;;;;;;;;;5062088;28;20112;-85
2021/08/16 09:20:35;;;;;;;8.40;4.03;;;;;;;;;;5066534;28;20410;-84
2021/08/16 09:23:02;;;;;;;5.30;3.80;;;;;;;;;;5073218;28;20024;-84
2021/08/16 09:25:31;;;;;;;5.88;3.58;;;;;;;;;;5058307;28;20028;-87
2021/08/16 09:27:57;;;;;;;5.38;3.20;;;;;;;;;;5064187;28;20039;-83
2021/08/16 09:30:39;;;;;;;4.05;3.10;;;;;;;;;;5062988;28;20024;-85
2021/08/16 09:33:14;;;;;;;5.32;3.42;;;;;;;;;;5074688;28;20032;-86
2021/08/16 09:35:40;;;;;;;;;;;;;;;;;;5057672;28;20447;-81
2021/08/16 09:38:05;;;;;;;12.75;4.68;;;;;;;;;;5056923;28;19923;-83
2021/08/16 09:40:37;;;;;;;4.45;3.65;;;;;;;;;;5045356;28;20103;-84
2021/08/16 09:43:02;;;;;;;14.80;4.35;;;;;;;;;;5055400;28;20047;-82
2021/08/16 09:45:32;;;;;;;5.40;3.88;;;;;;;;;;5054833;28;20395;-83
2021/08/16 09:47:59;;;;;;;6.53;4.47;;;;;;;;;;5070636;28;20082;-83
2021/08/16 09:50:42;;;;;;;5.07;3.60;;;;;;;;;;5067647;28;20047;-82
2021/08/16 09:53:10;;;;;;;3.83;3.08;;;;;;;;;;5062235;28;20035;-82
2021/08/16 09:55:40;;;;;;;10.77;4.78;;;;;;;;;;5065376;28;20033;-84
2021/08/16 09:58:09;;;;;;;6.63;3.55;;;;;;;;;;5054692;28;20468;-83
2021/08/16 10:00:36;;;;;;;5.82;3.80;;;;;;;;;;5055325;28;20039;-85
2021/08/16 10:03:02;;;;;;;5.80;4.13;;;;;;;;;;5058979;28;20071;-85
2021/08/16 10:05:29;;;;;;;6.32;3.38;;;;;;;;;;5069552;28;20074;-83
2021/08/16 10:07:58;;;;;;;7.53;3.78;;;;;;;;;;5057045;28;20025;-84
2021/08/16 10:10:24;;;;;;;7.57;3.95;;;;;;;;;;5058119;28;20403;-84
2021/08/16 10:12:50;;;;;;;6.72;4.30;;;;;;;;;;5043364;28;20086;-83
2021/08/16 10:15:15;;;;;;;6.70;3.70;;;;;;;;;;5060612;28;20111;-85
2021/08/16 10:17:42;;;;;;;5.70;4.20;;;;;;;;;;5059660;28;20032;-84
2021/08/16 10:20:08;;;;;;;7.65;3.35;;;;;;;;;;5069737;28;20088;-85
2021/08/16 10:22:37;;;;;;;7.13;3.75;;;;;;;;;;5071193;28;20028;-85
2021/08/16 10:25:10;;;;;;;5.13;3.63;;;;;;;;;;5050330;28;20047;-84
2021/08/16 10:27:35;;;;;;;9.50;3.92;;;;;;;;;;5064969;28;20033;-84
2021/08/16 10:30:14;;;;;;;8.10;4.03;;;;;;;;;;5078099;28;20477;-85
2021/08/16 10:32:47;;;;;;;5.88;4.00;;;;;;;;;;5063368;28;20445;-85
2021/08/16 10:35:13;;;;;;;11.77;4.30;;;;;;;;;;5054437;28;20028;-84
2021/08/16 10:37:45;;;;;;;9.43;3.78;;;;;;;;;;5067481;28;20032;-84
2021/08/16 10:40:21;;;;;;;5.18;3.53;;;;;;;;;;5058495;28;20119;-85
2021/08/16 10:42:48;;;;;;;7.03;4.10;;;;;;;;;;5056081;28;20025;-86
2021/08/16 10:45:23;;;;;;;12.07;4.05;;;;;;;;;;5062857;28;20071;-84
2021/08/16 10:47:58;;;;;;;6.22;3.95;;;;;;;;;;5062251;28;20547;-82
2021/08/16 10:50:23;;;;;;;6.97;4.40;;;;;;;;;;5072734;28;20044;-85
2021/08/16 10:52:58;;;;;;;6.32;4.15;;;;;;;;;;5064599;28;20024;-85
2021/08/16 10:55:25;;;;;;;5.22;3.47;;;;;;;;;;5059266;28;20035;-84
2021/08/16 10:57:50;;;;;;;8.20;3.70;;;;;;;;;;5073795;28;20036;-83
2021/08/16 11:00:16;;;;;;;9.65;3.70;;;;;;;;;;5078155;28;20502;-84
2021/08/16 11:02:42;;;;;;;6.13;3.80;;;;;;;;;;5060679;28;20027;-82
2021/08/16 11:05:11;;;;;;;6.63;4.40;;;;;;;;;;5063627;28;20037;-85
2021/08/16 11:07:37;;;;;;;7.45;3.72;;;;;;;;;;5065816;28;20040;-85
2021/08/16 11:10:10;;;;;;;6.25;3.97;;;;;;;;;;5067855;28;20044;-84
2021/08/16 11:12:38;;;;;;;7.55;3.95;;;;;;;;;;5091237;28;20032;-84
2021/08/16 11:15:05;;;;;;;5.88;4.60;;;;;;;;;;5064374;28;20052;-82
2021/08/16 11:17:31;;;;;;;7.22;4.57;;;;;;;;;;5062138;28;20390;-84
2021/08/16 11:20:03;;;;;;;5.05;3.65;;;;;;;;;;5050255;28;20037;-84
2021/08/16 11:22:29;;;;;;;8.13;4.47;;;;;;;;;;5067058;28;20031;-84
2021/08/16 11:24:55;;;;;;;7.25;4.15;;;;;;;;;;5072349;28;20040;-85
2021/08/16 11:27:25;;;;;;;16.15;5.03;;;;;;;;;;5070388;28;20589;-84
2021/08/16 11:30:00;;;;;;;7.45;4.50;;;;;;;;;;5063634;28;20037;-86
2021/08/16 11:32:26;;;;;;;;;;;;;;;;;;5069108;28;20162;-85
2021/08/16 11:34:55;;;;;;;12.45;4.97;;;;;;;;;;5052873;28;19951;-86
2021/08/16 11:37:25;;;;;;;6.82;4.25;;;;;;;;;;5054102;28;20040;-85
2021/08/16 11:39:51;;;;;;;7.28;4.15;;;;;;;;;;5041815;28;20040;-85
2021/08/16 11:42:18;;;;;;;11.55;5.10;;;;;;;;;;5061167;28;20446;-85
2021/08/16 11:44:54;;;;;;;11.48;5.05;;;;;;;;;;5059644;28;20036;-83
2021/08/16 11:47:25;;;;;;;7.75;4.65;;;;;;;;;;5057633;28;20451;-83
2021/08/16 11:49:56;;;;;;;18.35;5.13;;;;;;;;;;5072511;28;20120;-85
2021/08/16 11:52:22;;;;;;;9.05;4.50;;;;;;;;;;5073175;28;20029;-83
2021/08/16 11:54:50;;;;;;;16.17;5.50;;;;;;;;;;5072278;28;20080;-83
2021/08/16 11:57:21;;;;;;;18.45;6.32;;;;;;;;;;5073248;28;20337;-84
2021/08/16 11:59:50;;;;;;;14.00;5.28;;;;;;;;;;5070298;28;20034;-83
2021/08/16 12:02:16;;;;;;;11.77;4.38;;;;;;;;;;5072802;28;20035;-83
2021/08/16 12:04:43;;;;;;;9.10;5.13;;;;;;;;;;5072370;28;20032;-82
2021/08/16 12:07:09;;;;;;;12.20;5.28;;;;;;;;;;5071225;28;20082;-85
2021/08/16 12:09:36;;;;;;;225.25;21.27;;;;;;;;;;5073080;28;20029;-85
2021/08/16 12:12:03;;;;;;;18.33;5.75;;;;;;;;;;5072423;28;20538;-84
2021/08/16 12:14:29;;;;;;;16.20;4.90;;;;;;;;;;5052238;28;20428;-84
2021/08/16 12:16:55;;;;;;;13.52;5.50;;;;;;;;;;5058510;28;20029;-84
2021/08/16 12:19:21;;;;;;;12.23;5.30;;;;;;;;;;5055017;28;20036;-86
2021/08/16 12:21:46;;;;;;;10.68;4.80;;;;;;;;;;5073028;28;20077;-87
2021/08/16 12:24:12;;;;;;;18.17;5.28;;;;;;;;;;5072339;28;20033;-84
2021/08/16 12:26:38;;;;;;;11.90;4.68;;;;;;;;;;5058560;28;20367;-85
2021/08/16 12:29:15;;;;;;;7.30;4.32;;;;;;;;;;5061233;28;20376;-83
2021/08/16 12:31:41;;;;;;;8.88;5.13;;;;;;;;;;5054576;28;20016;-84
2021/08/16 12:34:12;;;;;;;9.27;4.88;;;;;;;;;;5061599;28;20443;-84
2021/08/16 12:36:40;;;;;;;10.80;5.03;;;;;;;;;;5071751;28;20024;-85
2021/08/16 12:39:09;;;;;;;9.30;5.53;;;;;;;;;;5063728;28;20045;-85
2021/08/16 12:41:35;;;;;;;9.57;5.07;;;;;;;;;;5072450;28;20521;-84
2021/08/16 12:44:01;;;;;;;31.75;6.75;;;;;;;;;;5072559;28;20078;-83
2021/08/16 12:46:35;;;;;;;12.30;5.15;;;;;;;;;;5073281;28;20028;-84
2021/08/16 12:49:01;;;;;;;9.45;5.97;;;;;;;;;;5072210;28;20040;-84
2021/08/16 12:51:27;;;;;;;13.27;5.65;;;;;;;;;;5076652;28;20028;-84
2021/08/16 12:53:57;;;;;;;11.70;5.85;;;;;;;;;;5076199;28;20060;-85
2021/08/16 12:56:23;;;;;;;7.32;5.05;;;;;;;;;;5053595;28;20051;-85
2021/08/16 12:58:49;;;;;;;15.02;6.82;;;;;;;;;;5075843;28;20084;-84
2021/08/16 13:01:22;;;;;;;18.10;6.25;;;;;;;;;;5069540;28;20119;-84
2021/08/16 13:03:48;;;;;;;13.32;5.85;;;;;;;;;;5039892;28;20060;-85
2021/08/16 13:06:13;;;;;;;21.67;6.57;;;;;;;;;;5057977;28;20336;-85
2021/08/16 13:08:41;;;;;;;11.40;5.22;;;;;;;;;;5070857;28;20025;-85
2021/08/16 13:11:06;;;;;;;11.60;5.53;;;;;;;;;;5075717;28;20020;-87
2021/08/16 13:13:32;;;;;;;12.48;5.60;;;;;;;;;;5073585;28;20073;-86
2021/08/16 13:15:57;;;;;;;7.43;5.05;;;;;;;;;;5070683;28;20107;-82
2021/08/16 13:18:23;;;;;;;12.18;6.63;;;;;;;;;;5067226;28;20024;-82
2021/08/16 13:20:49;;;;;;;7.40;4.68;;;;;;;;;;5074462;28;20036;-85
2021/08/16 13:23:15;;;;;;;10.25;5.55;;;;;;;;;;5061565;28;20028;-83
2021/08/16 13:25:41;;;;;;;8.70;5.82;;;;;;;;;;5054622;28;20025;-81
2021/08/16 13:28:07;;;;;;;9.57;5.78;;;;;;;;;;5066818;28;20136;-81
2021/08/16 13:30:33;;;;;;;10.68;5.82;;;;;;;;;;5063493;28;20074;-81
2021/08/16 13:32:59;;;;;;;12.02;5.45;;;;;;;;;;5067728;28;20439;-80
2021/08/16 13:35:25;;;;;;;19.63;6.32;;;;;;;;;;5065946;28;20120;-81
2021/08/16 13:37:51;;;;;;;8.35;4.70;;;;;;;;;;5069073;28;20051;-83
2021/08/16 13:40:17;;;;;;;10.48;4.97;;;;;;;;;;5075054;28;20071;-81
2021/08/16 13:42:42;;;;;;;13.55;5.72;;;;;;;;;;5073569;28;20490;-81
2021/08/16 13:45:09;;;;;;;11.35;5.18;;;;;;;;;;5071332;28;20040;-83
2021/08/16 13:47:34;;;;;;;8.65;5.47;;;;;;;;;;5056675;28;20479;-81
2021/08/16 13:50:00;;;;;;;9.02;5.85;;;;;;;;;;5070918;28;20048;-81
2021/08/16 13:52:26;;;;;;;20.83;6.60;;;;;;;;;;5073980;28;20483;-82
2021/08/16 13:54:52;;;;;;;13.73;6.47;;;;;;;;;;5074030;28;20039;-82
2021/08/16 13:57:17;;;;;;;14.40;6.22;;;;;;;;;;5074058;28;20339;-83
2021/08/16 13:59:43;;;;;;;11.73;5.72;;;;;;;;;;5074243;28;20039;-82
2021/08/16 14:02:09;;;;;;;10.85;6.22;;;;;;;;;;5072930;28;20500;-82
2021/08/16 14:04:34;;;;;;;16.25;6.10;;;;;;;;;;5058525;28;20182;-84
2021/08/16 14:07:01;;;;;;;12.90;5.80;;;;;;;;;;5056933;28;20032;-83
2021/08/16 14:09:27;;;;;;;13.48;5.18;;;;;;;;;;5073966;28;20123;-79
2021/08/16 14:11:53;;;;;;;9.77;5.80;;;;;;;;;;5072733;28;20114;-81
2021/08/16 14:14:19;;;;;;;13.52;6.13;;;;;;;;;;5072680;28;20055;-81
2021/08/16 14:16:45;;;;;;;8.30;5.50;;;;;;;;;;5059638;28;20021;-82
2021/08/16 14:19:10;;;;;;;8.88;5.75;;;;;;;;;;5054284;28;20037;-84
2021/08/16 14:21:37;;;;;;;24.90;7.13;;;;;;;;;;5057391;28;20367;-81
2021/08/16 14:24:04;;;;;;;11.07;6.38;;;;;;;;;;5053349;28;20047;-81
2021/08/16 14:26:30;;;;;;;14.25;5.88;;;;;;;;;;5071772;28;20371;-78
2021/08/16 14:28:58;;;;;;;13.60;5.85;;;;;;;;;;5072189;28;20035;-79
2021/08/16 14:31:24;;;;;;;13.20;6.15;;;;;;;;;;5072558;28;20021;-78
2021/08/16 14:33:50;;;;;;;14.77;5.90;;;;;;;;;;5054392;28;20579;-80
2021/08/16 14:36:16;;;;;;;13.07;6.50;;;;;;;;;;5056509;28;20052;-80